sensor_id;sensor_type;location;lat;lon;timestamp;temperature;humidity
10278;DHT22;5184;51.376;7.148;2023-06-10T00:02:20;18.30;1.00
10278;DHT22;5184;51.376;7.148;2023-06-10T00:04:47;18.20;34.20
10278;DHT22;5184;51.376;7.148;2023-06-10T00:07:15;18.10;99.90
10278;DHT22;5184;51.376;7.148;2023-06-10T00:09:42;18.10;99.90
10278;DHT22;5184;51.376;7.148;2023-06-10T00:12:09;18.00;99.90
10278;DHT22;5184;51.376;7.148;2023-06-10T00:14:38;18.00;99.90
10278;DHT22;5184;51.376;7.148;2023-06-10T00:17:04;17.90;99.90
10278;DHT22;5184;51.376;7.148;2023-06-10T00:19:31;17.90;1.00
10278;DHT22;5184;51.376;7.148;2023-06-10T00:21:58;17.90;99.90
10278;DHT22;5184;51.376;7.148;2023-06-10T00:24:24;17.90;99.90
10278;DHT22;5184;51.376;7.148;2023-06-10T00:26:51;17.70;1.00
10278;DHT22;5184;51.376;7.148;2023-06-10T00:29:18;17.60;1.00
10278;DHT22;5184;51.376;7.148;2023-06-10T00:31:44;17.30;1.00
10278;DHT22;5184;51.376;7.148;2023-06-10T00:34:11;17.60;1.00
10278;DHT22;5184;51.376;7.148;2023-06-10T00:36:37;17.50;1.00
10278;DHT22;5184;51.376;7.148;2023-06-10T00:39:05;17.40;1.00
10278;DHT22;5184;51.376;7.148;2023-06-10T00:41:32;17.30;1.00
10278;DHT22;5184;51.376;7.148;2023-06-10T00:43:59;17.30;44.40
10278;DHT22;5184;51.376;7.148;2023-06-10T00:46:27;17.30;12.00
10278;DHT22;5184;51.376;7.148;2023-06-10T00:48:53;17.20;5.50
10278;DHT22;5184;51.376;7.148;2023-06-10T00:51:20;17.20;18.70
10278;DHT22;5184;51.376;7.148;2023-06-10T00:53:47;17.20;50.40
10278;DHT22;5184;51.376;7.148;2023-06-10T00:56:13;17.10;92.30
10278;DHT22;5184;51.376;7.148;2023-06-10T00:58:40;17.10;99.90
10278;DHT22;5184;51.376;7.148;2023-06-10T01:01:07;17.10;29.60
10278;DHT22;5184;51.376;7.148;2023-06-10T01:03:34;17.10;46.00
10278;DHT22;5184;51.376;7.148;2023-06-10T01:06:06;17.10;38.10
10278;DHT22;5184;51.376;7.148;2023-06-10T01:08:35;17.10;39.60
10278;DHT22;5184;51.376;7.148;2023-06-10T01:11:00;17.10;1.00
10278;DHT22;5184;51.376;7.148;2023-06-10T01:13:27;17.00;56.10
10278;DHT22;5184;51.376;7.148;2023-06-10T01:15:54;17.00;47.20
10278;DHT22;5184;51.376;7.148;2023-06-10T01:18:21;16.90;1.00
10278;DHT22;5184;51.376;7.148;2023-06-10T01:20:48;16.90;35.30
10278;DHT22;5184;51.376;7.148;2023-06-10T01:23:16;16.90;27.50
10278;DHT22;5184;51.376;7.148;2023-06-10T01:25:47;16.90;5.10
10278;DHT22;5184;51.376;7.148;2023-06-10T01:28:19;16.90;1.00
10278;DHT22;5184;51.376;7.148;2023-06-10T01:30:56;16.90;1.00
10278;DHT22;5184;51.376;7.148;2023-06-10T01:33:23;16.90;1.00
10278;DHT22;5184;51.376;7.148;2023-06-10T01:35:46;17.00;1.00
10278;DHT22;5184;51.376;7.148;2023-06-10T01:38:13;16.90;1.00
10278;DHT22;5184;51.376;7.148;2023-06-10T01:40:40;16.90;1.00
10278;DHT22;5184;51.376;7.148;2023-06-10T01:43:07;16.80;99.90
10278;DHT22;5184;51.376;7.148;2023-06-10T01:45:34;16.70;99.90
10278;DHT22;5184;51.376;7.148;2023-06-10T01:48:02;16.60;99.90
10278;DHT22;5184;51.376;7.148;2023-06-10T01:50:28;16.70;99.90
10278;DHT22;5184;51.376;7.148;2023-06-10T01:52:56;16.60;99.90
10278;DHT22;5184;51.376;7.148;2023-06-10T01:55:21;16.60;99.90
10278;DHT22;5184;51.376;7.148;2023-06-10T01:57:48;16.50;1.00
10278;DHT22;5184;51.376;7.148;2023-06-10T02:00:15;16.50;1.00
10278;DHT22;5184;51.376;7.148;2023-06-10T02:02:42;16.40;1.00
10278;DHT22;5184;51.376;7.148;2023-06-10T02:05:08;16.40;1.00
10278;DHT22;5184;51.376;7.148;2023-06-10T02:07:35;16.40;1.00
10278;DHT22;5184;51.376;7.148;2023-06-10T02:10:01;16.70;1.00
10278;DHT22;5184;51.376;7.148;2023-06-10T02:12:29;16.20;1.00
10278;DHT22;5184;51.376;7.148;2023-06-10T02:14:56;16.30;1.00
10278;DHT22;5184;51.376;7.148;2023-06-10T02:17:23;16.20;1.00
10278;DHT22;5184;51.376;7.148;2023-06-10T02:19:50;16.20;1.00
10278;DHT22;5184;51.376;7.148;2023-06-10T02:22:20;16.20;1.00
10278;DHT22;5184;51.376;7.148;2023-06-10T02:24:46;16.20;1.00
10278;DHT22;5184;51.376;7.148;2023-06-10T02:27:12;16.20;1.00
10278;DHT22;5184;51.376;7.148;2023-06-10T02:29:39;16.10;1.00
10278;DHT22;5184;51.376;7.148;2023-06-10T02:32:06;16.10;1.00
10278;DHT22;5184;51.376;7.148;2023-06-10T02:34:33;16.10;99.90
10278;DHT22;5184;51.376;7.148;2023-06-10T02:36:59;16.00;99.90
10278;DHT22;5184;51.376;7.148;2023-06-10T02:39:26;16.00;19.90
10278;DHT22;5184;51.376;7.148;2023-06-10T02:41:53;15.90;99.90
10278;DHT22;5184;51.376;7.148;2023-06-10T02:44:21;15.90;99.90
10278;DHT22;5184;51.376;7.148;2023-06-10T02:46:47;15.90;99.90
10278;DHT22;5184;51.376;7.148;2023-06-10T02:49:14;15.90;99.90
10278;DHT22;5184;51.376;7.148;2023-06-10T02:51:40;15.90;99.90
10278;DHT22;5184;51.376;7.148;2023-06-10T02:54:08;15.70;99.90
10278;DHT22;5184;51.376;7.148;2023-06-10T02:56:35;15.70;1.00
10278;DHT22;5184;51.376;7.148;2023-06-10T02:59:02;15.70;99.90
10278;DHT22;5184;51.376;7.148;2023-06-10T03:01:29;15.70;99.90
10278;DHT22;5184;51.376;7.148;2023-06-10T03:03:56;16.10;99.90
10278;DHT22;5184;51.376;7.148;2023-06-10T03:06:22;15.70;99.90
10278;DHT22;5184;51.376;7.148;2023-06-10T03:08:50;15.60;99.90
10278;DHT22;5184;51.376;7.148;2023-06-10T03:11:17;15.60;99.90
10278;DHT22;5184;51.376;7.148;2023-06-10T03:13:43;15.60;99.90
10278;DHT22;5184;51.376;7.148;2023-06-10T03:16:10;15.60;1.00
10278;DHT22;5184;51.376;7.148;2023-06-10T03:18:37;15.60;1.00
10278;DHT22;5184;51.376;7.148;2023-06-10T03:21:03;15.60;1.00
10278;DHT22;5184;51.376;7.148;2023-06-10T03:23:30;15.60;1.00
10278;DHT22;5184;51.376;7.148;2023-06-10T03:25:57;15.60;1.00
10278;DHT22;5184;51.376;7.148;2023-06-10T03:28:24;15.60;1.00
10278;DHT22;5184;51.376;7.148;2023-06-10T03:30:51;15.50;1.00
10278;DHT22;5184;51.376;7.148;2023-06-10T03:33:19;15.50;1.00
10278;DHT22;5184;51.376;7.148;2023-06-10T03:35:45;15.50;1.00
10278;DHT22;5184;51.376;7.148;2023-06-10T03:38:12;15.50;45.90
10278;DHT22;5184;51.376;7.148;2023-06-10T03:40:38;15.50;82.00
10278;DHT22;5184;51.376;7.148;2023-06-10T03:43:05;15.60;99.90
10278;DHT22;5184;51.376;7.148;2023-06-10T03:45:32;15.50;99.90
10278;DHT22;5184;51.376;7.148;2023-06-10T03:47:58;15.50;99.90
10278;DHT22;5184;51.376;7.148;2023-06-10T03:50:25;15.50;99.90
10278;DHT22;5184;51.376;7.148;2023-06-10T03:52:51;15.60;99.90
10278;DHT22;5184;51.376;7.148;2023-06-10T03:55:19;15.50;99.90
10278;DHT22;5184;51.376;7.148;2023-06-10T03:57:45;15.50;99.90
10278;DHT22;5184;51.376;7.148;2023-06-10T04:00:12;15.60;99.90
10278;DHT22;5184;51.376;7.148;2023-06-10T04:02:40;15.60;99.90
10278;DHT22;5184;51.376;7.148;2023-06-10T04:05:07;15.60;99.90
10278;DHT22;5184;51.376;7.148;2023-06-10T04:07:35;15.60;99.90
10278;DHT22;5184;51.376;7.148;2023-06-10T04:10:02;15.60;99.90
10278;DHT22;5184;51.376;7.148;2023-06-10T04:12:29;15.60;99.90
10278;DHT22;5184;51.376;7.148;2023-06-10T04:14:55;15.60;1.00
10278;DHT22;5184;51.376;7.148;2023-06-10T04:17:22;15.60;1.00
10278;DHT22;5184;51.376;7.148;2023-06-10T04:19:49;15.70;99.90
10278;DHT22;5184;51.376;7.148;2023-06-10T04:22:16;15.70;99.90
10278;DHT22;5184;51.376;7.148;2023-06-10T04:24:43;15.70;99.90
10278;DHT22;5184;51.376;7.148;2023-06-10T04:27:10;15.80;99.90
10278;DHT22;5184;51.376;7.148;2023-06-10T04:29:36;15.80;99.90
10278;DHT22;5184;51.376;7.148;2023-06-10T04:32:04;15.90;99.90
10278;DHT22;5184;51.376;7.148;2023-06-10T04:34:31;15.90;99.90
10278;DHT22;5184;51.376;7.148;2023-06-10T04:36:57;15.90;1.00
10278;DHT22;5184;51.376;7.148;2023-06-10T04:39:25;16.00;1.00
10278;DHT22;5184;51.376;7.148;2023-06-10T04:41:51;16.00;1.00
10278;DHT22;5184;51.376;7.148;2023-06-10T04:44:18;16.10;1.00
10278;DHT22;5184;51.376;7.148;2023-06-10T04:46:44;16.10;1.00
10278;DHT22;5184;51.376;7.148;2023-06-10T04:49:11;16.20;1.00
10278;DHT22;5184;51.376;7.148;2023-06-10T04:51:38;16.30;99.90
10278;DHT22;5184;51.376;7.148;2023-06-10T04:54:04;16.40;99.90
10278;DHT22;5184;51.376;7.148;2023-06-10T04:56:31;16.40;99.90
10278;DHT22;5184;51.376;7.148;2023-06-10T04:58:57;16.50;1.00
10278;DHT22;5184;51.376;7.148;2023-06-10T05:01:25;16.60;1.00
10278;DHT22;5184;51.376;7.148;2023-06-10T05:03:52;16.60;1.00
10278;DHT22;5184;51.376;7.148;2023-06-10T05:06:19;16.70;1.00
10278;DHT22;5184;51.376;7.148;2023-06-10T05:08:46;16.70;1.00
10278;DHT22;5184;51.376;7.148;2023-06-10T05:11:13;16.80;1.00
10278;DHT22;5184;51.376;7.148;2023-06-10T05:13:41;16.80;1.00
10278;DHT22;5184;51.376;7.148;2023-06-10T05:16:06;16.90;99.90
10278;DHT22;5184;51.376;7.148;2023-06-10T05:18:32;16.90;99.90
10278;DHT22;5184;51.376;7.148;2023-06-10T05:20:59;16.90;1.00
10278;DHT22;5184;51.376;7.148;2023-06-10T05:23:26;17.00;1.00
10278;DHT22;5184;51.376;7.148;2023-06-10T05:25:52;17.00;99.90
10278;DHT22;5184;51.376;7.148;2023-06-10T05:28:19;17.10;99.90
10278;DHT22;5184;51.376;7.148;2023-06-10T05:30:45;17.20;99.90
10278;DHT22;5184;51.376;7.148;2023-06-10T05:33:12;17.20;99.90
10278;DHT22;5184;51.376;7.148;2023-06-10T05:35:39;17.30;97.40
10278;DHT22;5184;51.376;7.148;2023-06-10T05:38:07;17.40;1.00
10278;DHT22;5184;51.376;7.148;2023-06-10T05:40:33;17.40;1.00
10278;DHT22;5184;51.376;7.148;2023-06-10T05:43:00;17.40;1.00
10278;DHT22;5184;51.376;7.148;2023-06-10T05:45:27;17.50;1.00
10278;DHT22;5184;51.376;7.148;2023-06-10T05:47:53;17.50;1.00
10278;DHT22;5184;51.376;7.148;2023-06-10T05:50:20;17.60;1.00
10278;DHT22;5184;51.376;7.148;2023-06-10T05:52:46;17.60;1.00
10278;DHT22;5184;51.376;7.148;2023-06-10T05:55:13;17.70;99.90
10278;DHT22;5184;51.376;7.148;2023-06-10T05:57:41;17.80;99.90
10278;DHT22;5184;51.376;7.148;2023-06-10T06:00:07;17.90;30.00
10278;DHT22;5184;51.376;7.148;2023-06-10T06:02:34;17.90;19.50
10278;DHT22;5184;51.376;7.148;2023-06-10T06:05:01;17.90;1.00
10278;DHT22;5184;51.376;7.148;2023-06-10T06:07:27;18.00;1.00
10278;DHT22;5184;51.376;7.148;2023-06-10T06:09:55;18.30;1.00
10278;DHT22;5184;51.376;7.148;2023-06-10T06:12:22;18.30;1.00
10278;DHT22;5184;51.376;7.148;2023-06-10T06:14:49;18.40;1.00
10278;DHT22;5184;51.376;7.148;2023-06-10T06:17:16;18.40;1.00
10278;DHT22;5184;51.376;7.148;2023-06-10T06:19:43;18.60;1.00
10278;DHT22;5184;51.376;7.148;2023-06-10T06:22:11;18.70;1.00
10278;DHT22;5184;51.376;7.148;2023-06-10T06:24:38;18.70;1.00
10278;DHT22;5184;51.376;7.148;2023-06-10T06:27:05;18.70;1.00
10278;DHT22;5184;51.376;7.148;2023-06-10T06:29:31;18.80;1.00
10278;DHT22;5184;51.376;7.148;2023-06-10T06:31:58;18.90;1.00
10278;DHT22;5184;51.376;7.148;2023-06-10T06:34:24;18.90;1.00
10278;DHT22;5184;51.376;7.148;2023-06-10T06:36:52;19.10;99.90
10278;DHT22;5184;51.376;7.148;2023-06-10T06:39:19;19.30;99.90
10278;DHT22;5184;51.376;7.148;2023-06-10T06:41:46;19.30;99.90
10278;DHT22;5184;51.376;7.148;2023-06-10T06:44:12;19.40;99.90
10278;DHT22;5184;51.376;7.148;2023-06-10T06:46:39;19.40;99.90
10278;DHT22;5184;51.376;7.148;2023-06-10T06:49:06;19.60;93.10
10278;DHT22;5184;51.376;7.148;2023-06-10T06:51:34;19.70;25.30
10278;DHT22;5184;51.376;7.148;2023-06-10T06:54:01;19.80;24.60
10278;DHT22;5184;51.376;7.148;2023-06-10T06:56:28;19.80;17.60
10278;DHT22;5184;51.376;7.148;2023-06-10T06:58:54;19.80;1.00
10278;DHT22;5184;51.376;7.148;2023-06-10T07:01:21;19.90;1.00
10278;DHT22;5184;51.376;7.148;2023-06-10T07:03:48;20.00;1.00
10278;DHT22;5184;51.376;7.148;2023-06-10T07:06:14;20.10;99.90
10278;DHT22;5184;51.376;7.148;2023-06-10T07:08:41;20.30;99.90
10278;DHT22;5184;51.376;7.148;2023-06-10T07:11:08;20.20;99.90
10278;DHT22;5184;51.376;7.148;2023-06-10T07:13:35;20.40;99.90
10278;DHT22;5184;51.376;7.148;2023-06-10T07:16:01;20.50;99.90
10278;DHT22;5184;51.376;7.148;2023-06-10T07:18:28;20.50;99.90
10278;DHT22;5184;51.376;7.148;2023-06-10T07:20:54;20.60;99.90
10278;DHT22;5184;51.376;7.148;2023-06-10T07:23:21;20.70;99.90
10278;DHT22;5184;51.376;7.148;2023-06-10T07:25:48;20.90;39.70
10278;DHT22;5184;51.376;7.148;2023-06-10T07:28:16;21.00;16.10
10278;DHT22;5184;51.376;7.148;2023-06-10T07:30:43;21.10;1.00
10278;DHT22;5184;51.376;7.148;2023-06-10T07:33:10;21.20;1.00
10278;DHT22;5184;51.376;7.148;2023-06-10T07:35:38;21.20;1.00
10278;DHT22;5184;51.376;7.148;2023-06-10T07:38:05;21.30;1.00
10278;DHT22;5184;51.376;7.148;2023-06-10T07:40:32;21.30;1.00
10278;DHT22;5184;51.376;7.148;2023-06-10T07:42:58;21.40;1.00
10278;DHT22;5184;51.376;7.148;2023-06-10T07:45:25;21.60;99.90
10278;DHT22;5184;51.376;7.148;2023-06-10T07:47:52;21.60;1.00
10278;DHT22;5184;51.376;7.148;2023-06-10T07:50:18;21.70;99.90
10278;DHT22;5184;51.376;7.148;2023-06-10T07:52:46;21.90;99.90
10278;DHT22;5184;51.376;7.148;2023-06-10T07:55:13;21.90;99.90
10278;DHT22;5184;51.376;7.148;2023-06-10T07:57:40;22.00;99.90
10278;DHT22;5184;51.376;7.148;2023-06-10T08:00:07;22.00;99.90
10278;DHT22;5184;51.376;7.148;2023-06-10T08:02:34;22.00;99.90
10278;DHT22;5184;51.376;7.148;2023-06-10T08:05:00;22.10;99.90
10278;DHT22;5184;51.376;7.148;2023-06-10T08:07:28;22.30;99.90
10278;DHT22;5184;51.376;7.148;2023-06-10T08:09:55;22.40;99.90
10278;DHT22;5184;51.376;7.148;2023-06-10T08:12:22;22.40;99.90
10278;DHT22;5184;51.376;7.148;2023-06-10T08:14:48;22.50;96.50
10278;DHT22;5184;51.376;7.148;2023-06-10T08:17:15;22.50;77.90
10278;DHT22;5184;51.376;7.148;2023-06-10T08:19:42;22.60;91.60
10278;DHT22;5184;51.376;7.148;2023-06-10T08:22:08;22.70;1.00
10278;DHT22;5184;51.376;7.148;2023-06-10T08:24:35;22.90;1.00
10278;DHT22;5184;51.376;7.148;2023-06-10T08:27:03;22.90;1.00
10278;DHT22;5184;51.376;7.148;2023-06-10T08:29:30;22.90;1.00
10278;DHT22;5184;51.376;7.148;2023-06-10T08:31:56;23.00;1.00
10278;DHT22;5184;51.376;7.148;2023-06-10T08:34:23;23.00;1.00
10278;DHT22;5184;51.376;7.148;2023-06-10T08:36:50;23.20;1.00
10278;DHT22;5184;51.376;7.148;2023-06-10T08:39:18;23.20;1.00
10278;DHT22;5184;51.376;7.148;2023-06-10T08:41:46;23.30;1.00
10278;DHT22;5184;51.376;7.148;2023-06-10T08:44:13;23.30;1.00
10278;DHT22;5184;51.376;7.148;2023-06-10T08:46:39;23.50;1.00
10278;DHT22;5184;51.376;7.148;2023-06-10T08:49:06;23.60;1.00
10278;DHT22;5184;51.376;7.148;2023-06-10T08:51:34;23.70;99.90
10278;DHT22;5184;51.376;7.148;2023-06-10T08:54:02;23.70;99.90
10278;DHT22;5184;51.376;7.148;2023-06-10T08:56:28;23.80;99.90
10278;DHT22;5184;51.376;7.148;2023-06-10T08:58:55;23.80;99.90
10278;DHT22;5184;51.376;7.148;2023-06-10T09:01:23;24.00;99.90
10278;DHT22;5184;51.376;7.148;2023-06-10T09:03:49;23.90;99.90
10278;DHT22;5184;51.376;7.148;2023-06-10T09:06:15;24.10;99.90
10278;DHT22;5184;51.376;7.148;2023-06-10T09:08:42;24.10;99.90
10278;DHT22;5184;51.376;7.148;2023-06-10T09:11:09;24.20;99.90
10278;DHT22;5184;51.376;7.148;2023-06-10T09:13:35;24.30;99.90
10278;DHT22;5184;51.376;7.148;2023-06-10T09:16:03;24.40;99.90
10278;DHT22;5184;51.376;7.148;2023-06-10T09:18:29;24.40;99.90
10278;DHT22;5184;51.376;7.148;2023-06-10T09:20:56;24.50;53.80
10278;DHT22;5184;51.376;7.148;2023-06-10T09:23:23;24.50;89.40
10278;DHT22;5184;51.376;7.148;2023-06-10T09:25:55;24.60;99.90
10278;DHT22;5184;51.376;7.148;2023-06-10T09:28:16;24.60;99.90
10278;DHT22;5184;51.376;7.148;2023-06-10T09:30:43;24.80;99.90
10278;DHT22;5184;51.376;7.148;2023-06-10T09:33:11;24.90;30.20
10278;DHT22;5184;51.376;7.148;2023-06-10T09:35:44;25.00;99.90
10278;DHT22;5184;51.376;7.148;2023-06-10T09:38:04;25.00;99.90
10278;DHT22;5184;51.376;7.148;2023-06-10T09:40:31;25.10;63.50
10278;DHT22;5184;51.376;7.148;2023-06-10T09:42:59;25.10;1.30
10278;DHT22;5184;51.376;7.148;2023-06-10T09:45:30;25.10;95.20
10278;DHT22;5184;51.376;7.148;2023-06-10T09:47:56;25.20;37.30
10278;DHT22;5184;51.376;7.148;2023-06-10T09:50:23;25.30;99.90
10278;DHT22;5184;51.376;7.148;2023-06-10T09:52:50;25.60;99.90
10278;DHT22;5184;51.376;7.148;2023-06-10T09:55:18;25.60;15.90
10278;DHT22;5184;51.376;7.148;2023-06-10T09:57:46;25.60;1.00
10278;DHT22;5184;51.376;7.148;2023-06-10T10:00:12;25.60;1.00
10278;DHT22;5184;51.376;7.148;2023-06-10T10:02:46;25.70;1.00
10278;DHT22;5184;51.376;7.148;2023-06-10T10:05:12;25.70;99.90
10278;DHT22;5184;51.376;7.148;2023-06-10T10:07:39;25.80;1.00
10278;DHT22;5184;51.376;7.148;2023-06-10T10:10:06;25.80;1.00
10278;DHT22;5184;51.376;7.148;2023-06-10T10:12:33;25.90;1.00
10278;DHT22;5184;51.376;7.148;2023-06-10T10:15:01;26.00;1.00
10278;DHT22;5184;51.376;7.148;2023-06-10T10:17:28;26.10;1.00
10278;DHT22;5184;51.376;7.148;2023-06-10T10:20:00;26.10;7.50
10278;DHT22;5184;51.376;7.148;2023-06-10T10:22:26;26.10;8.00
10278;DHT22;5184;51.376;7.148;2023-06-10T10:24:54;26.20;1.00
10278;DHT22;5184;51.376;7.148;2023-06-10T10:27:26;26.30;1.00
10278;DHT22;5184;51.376;7.148;2023-06-10T10:29:48;26.30;1.00
10278;DHT22;5184;51.376;7.148;2023-06-10T10:32:14;26.30;1.00
10278;DHT22;5184;51.376;7.148;2023-06-10T10:34:48;26.30;1.00
10278;DHT22;5184;51.376;7.148;2023-06-10T10:37:10;26.30;1.00
10278;DHT22;5184;51.376;7.148;2023-06-10T10:39:37;26.40;1.00
10278;DHT22;5184;51.376;7.148;2023-06-10T10:42:04;26.50;1.00
10278;DHT22;5184;51.376;7.148;2023-06-10T10:44:30;26.50;1.00
10278;DHT22;5184;51.376;7.148;2023-06-10T10:46:57;26.60;1.00
10278;DHT22;5184;51.376;7.148;2023-06-10T10:49:24;26.70;1.00
10278;DHT22;5184;51.376;7.148;2023-06-10T10:51:58;26.80;1.00
10278;DHT22;5184;51.376;7.148;2023-06-10T10:54:32;26.80;1.00
10278;DHT22;5184;51.376;7.148;2023-06-10T10:57:18;26.80;1.00
10278;DHT22;5184;51.376;7.148;2023-06-10T10:59:53;26.90;99.90
10278;DHT22;5184;51.376;7.148;2023-06-10T11:02:19;27.00;1.00
10278;DHT22;5184;51.376;7.148;2023-06-10T11:04:46;27.10;99.90
10278;DHT22;5184;51.376;7.148;2023-06-10T11:07:13;27.30;99.90
10278;DHT22;5184;51.376;7.148;2023-06-10T11:09:40;27.20;99.90
10278;DHT22;5184;51.376;7.148;2023-06-10T11:12:07;27.40;99.90
10278;DHT22;5184;51.376;7.148;2023-06-10T11:14:34;27.40;99.90
10278;DHT22;5184;51.376;7.148;2023-06-10T11:17:00;27.40;99.90
10278;DHT22;5184;51.376;7.148;2023-06-10T11:19:33;27.40;99.90
10278;DHT22;5184;51.376;7.148;2023-06-10T11:22:02;27.50;99.90
10278;DHT22;5184;51.376;7.148;2023-06-10T11:24:29;27.50;99.90
10278;DHT22;5184;51.376;7.148;2023-06-10T11:27:09;27.60;99.90
10278;DHT22;5184;51.376;7.148;2023-06-10T11:29:23;27.70;99.90
10278;DHT22;5184;51.376;7.148;2023-06-10T11:31:49;27.70;99.90
10278;DHT22;5184;51.376;7.148;2023-06-10T11:34:21;27.70;99.90
10278;DHT22;5184;51.376;7.148;2023-06-10T11:36:43;27.60;99.90
10278;DHT22;5184;51.376;7.148;2023-06-10T11:39:10;27.60;99.90
10278;DHT22;5184;51.376;7.148;2023-06-10T11:41:38;27.80;99.90
10278;DHT22;5184;51.376;7.148;2023-06-10T11:44:09;27.80;99.90
10278;DHT22;5184;51.376;7.148;2023-06-10T11:46:35;27.80;99.90
10278;DHT22;5184;51.376;7.148;2023-06-10T11:49:01;27.90;99.90
10278;DHT22;5184;51.376;7.148;2023-06-10T11:51:28;28.00;99.90
10278;DHT22;5184;51.376;7.148;2023-06-10T11:53:55;28.10;99.90
10278;DHT22;5184;51.376;7.148;2023-06-10T11:56:22;28.10;99.90
10278;DHT22;5184;51.376;7.148;2023-06-10T11:58:54;28.30;97.00
10278;DHT22;5184;51.376;7.148;2023-06-10T12:01:21;28.20;96.80
10278;DHT22;5184;51.376;7.148;2023-06-10T12:03:47;28.30;99.90
10278;DHT22;5184;51.376;7.148;2023-06-10T12:06:14;28.40;99.90
10278;DHT22;5184;51.376;7.148;2023-06-10T12:08:41;28.50;93.20
10278;DHT22;5184;51.376;7.148;2023-06-10T12:11:08;28.50;94.60
10278;DHT22;5184;51.376;7.148;2023-06-10T12:13:35;28.50;93.70
10278;DHT22;5184;51.376;7.148;2023-06-10T12:16:07;28.50;90.80
10278;DHT22;5184;51.376;7.148;2023-06-10T12:18:34;28.50;87.30
10278;DHT22;5184;51.376;7.148;2023-06-10T12:21:01;28.70;87.70
10278;DHT22;5184;51.376;7.148;2023-06-10T12:23:28;28.60;73.90
10278;DHT22;5184;51.376;7.148;2023-06-10T12:25:56;28.70;77.70
10278;DHT22;5184;51.376;7.148;2023-06-10T12:28:24;28.80;66.90
10278;DHT22;5184;51.376;7.148;2023-06-10T12:30:50;28.80;67.50
10278;DHT22;5184;51.376;7.148;2023-06-10T12:33:18;28.80;65.70
10278;DHT22;5184;51.376;7.148;2023-06-10T12:35:48;29.10;67.90
10278;DHT22;5184;51.376;7.148;2023-06-10T12:38:14;29.10;67.70
10278;DHT22;5184;51.376;7.148;2023-06-10T12:40:41;29.10;45.50
10278;DHT22;5184;51.376;7.148;2023-06-10T12:43:08;29.10;44.00
10278;DHT22;5184;51.376;7.148;2023-06-10T12:45:37;29.10;62.60
10278;DHT22;5184;51.376;7.148;2023-06-10T12:48:07;29.10;63.10
10278;DHT22;5184;51.376;7.148;2023-06-10T12:50:33;29.30;53.70
10278;DHT22;5184;51.376;7.148;2023-06-10T12:53:00;29.30;55.30
10278;DHT22;5184;51.376;7.148;2023-06-10T12:55:26;29.80;54.10
10278;DHT22;5184;51.376;7.148;2023-06-10T12:57:53;29.60;38.90
10278;DHT22;5184;51.376;7.148;2023-06-10T13:00:20;29.50;44.80
10278;DHT22;5184;51.376;7.148;2023-06-10T13:02:48;29.60;33.80
10278;DHT22;5184;51.376;7.148;2023-06-10T13:05:15;29.50;34.20
10278;DHT22;5184;51.376;7.148;2023-06-10T13:07:42;29.50;46.20
10278;DHT22;5184;51.376;7.148;2023-06-10T13:10:08;29.60;37.10
10278;DHT22;5184;51.376;7.148;2023-06-10T13:12:35;29.80;32.60
10278;DHT22;5184;51.376;7.148;2023-06-10T13:15:02;29.90;29.30
10278;DHT22;5184;51.376;7.148;2023-06-10T13:17:29;30.00;30.20
10278;DHT22;5184;51.376;7.148;2023-06-10T13:19:56;30.10;27.80
10278;DHT22;5184;51.376;7.148;2023-06-10T13:22:23;30.10;27.60
10278;DHT22;5184;51.376;7.148;2023-06-10T13:24:50;30.20;25.00
10278;DHT22;5184;51.376;7.148;2023-06-10T13:27:16;30.30;24.60
10278;DHT22;5184;51.376;7.148;2023-06-10T13:29:43;30.30;10.30
10278;DHT22;5184;51.376;7.148;2023-06-10T13:32:09;30.30;12.10
10278;DHT22;5184;51.376;7.148;2023-06-10T13:34:37;30.20;6.40
10278;DHT22;5184;51.376;7.148;2023-06-10T13:37:04;30.20;5.10
10278;DHT22;5184;51.376;7.148;2023-06-10T13:39:31;30.20;4.80
10278;DHT22;5184;51.376;7.148;2023-06-10T13:41:57;30.20;13.60
10278;DHT22;5184;51.376;7.148;2023-06-10T13:44:24;30.30;16.50
10278;DHT22;5184;51.376;7.148;2023-06-10T13:46:51;30.30;22.40
10278;DHT22;5184;51.376;7.148;2023-06-10T13:49:18;30.30;11.80
10278;DHT22;5184;51.376;7.148;2023-06-10T13:51:45;30.20;5.70
10278;DHT22;5184;51.376;7.148;2023-06-10T13:54:13;30.50;3.00
10278;DHT22;5184;51.376;7.148;2023-06-10T13:56:39;30.40;1.50
10278;DHT22;5184;51.376;7.148;2023-06-10T13:59:06;30.40;3.60
10278;DHT22;5184;51.376;7.148;2023-06-10T14:01:32;30.60;1.60
10278;DHT22;5184;51.376;7.148;2023-06-10T14:03:59;30.70;1.00
10278;DHT22;5184;51.376;7.148;2023-06-10T14:06:26;30.90;4.10
10278;DHT22;5184;51.376;7.148;2023-06-10T14:08:53;30.90;1.00
10278;DHT22;5184;51.376;7.148;2023-06-10T14:11:20;30.90;1.00
10278;DHT22;5184;51.376;7.148;2023-06-10T14:13:47;30.90;1.00
10278;DHT22;5184;51.376;7.148;2023-06-10T14:16:14;31.30;1.00
10278;DHT22;5184;51.376;7.148;2023-06-10T14:18:41;31.30;1.20
10278;DHT22;5184;51.376;7.148;2023-06-10T14:21:09;31.50;1.00
10278;DHT22;5184;51.376;7.148;2023-06-10T14:23:36;31.50;1.00
10278;DHT22;5184;51.376;7.148;2023-06-10T14:26:04;31.40;1.00
10278;DHT22;5184;51.376;7.148;2023-06-10T14:28:31;31.40;1.00
10278;DHT22;5184;51.376;7.148;2023-06-10T14:30:57;31.30;1.00
10278;DHT22;5184;51.376;7.148;2023-06-10T14:33:25;32.00;1.00
10278;DHT22;5184;51.376;7.148;2023-06-10T14:35:52;32.80;1.00
10278;DHT22;5184;51.376;7.148;2023-06-10T14:38:20;33.50;1.00
10278;DHT22;5184;51.376;7.148;2023-06-10T14:40:47;34.30;1.00
10278;DHT22;5184;51.376;7.148;2023-06-10T14:43:14;34.70;1.00
10278;DHT22;5184;51.376;7.148;2023-06-10T14:45:42;34.90;1.00
10278;DHT22;5184;51.376;7.148;2023-06-10T14:48:08;34.90;1.00
10278;DHT22;5184;51.376;7.148;2023-06-10T14:50:35;34.90;1.00
10278;DHT22;5184;51.376;7.148;2023-06-10T14:53:01;34.80;1.00
10278;DHT22;5184;51.376;7.148;2023-06-10T14:55:28;34.50;1.00
10278;DHT22;5184;51.376;7.148;2023-06-10T14:57:55;34.10;1.00
10278;DHT22;5184;51.376;7.148;2023-06-10T15:00:21;33.90;1.00
10278;DHT22;5184;51.376;7.148;2023-06-10T15:02:49;33.60;1.00
10278;DHT22;5184;51.376;7.148;2023-06-10T15:05:15;33.40;1.00
10278;DHT22;5184;51.376;7.148;2023-06-10T15:07:42;33.30;1.00
10278;DHT22;5184;51.376;7.148;2023-06-10T15:10:09;33.30;1.00
10278;DHT22;5184;51.376;7.148;2023-06-10T15:12:35;33.30;1.00
10278;DHT22;5184;51.376;7.148;2023-06-10T15:15:02;33.40;1.00
10278;DHT22;5184;51.376;7.148;2023-06-10T15:17:29;33.40;1.00
10278;DHT22;5184;51.376;7.148;2023-06-10T15:19:55;33.40;1.00
10278;DHT22;5184;51.376;7.148;2023-06-10T15:22:22;33.50;1.00
10278;DHT22;5184;51.376;7.148;2023-06-10T15:24:48;33.40;1.00
10278;DHT22;5184;51.376;7.148;2023-06-10T15:27:16;33.50;1.00
10278;DHT22;5184;51.376;7.148;2023-06-10T15:29:42;33.60;1.00
10278;DHT22;5184;51.376;7.148;2023-06-10T15:32:09;33.50;1.00
10278;DHT22;5184;51.376;7.148;2023-06-10T15:34:35;33.40;1.00
10278;DHT22;5184;51.376;7.148;2023-06-10T15:37:03;33.30;1.00
10278;DHT22;5184;51.376;7.148;2023-06-10T15:39:30;33.20;1.00
10278;DHT22;5184;51.376;7.148;2023-06-10T15:41:56;33.60;1.00
10278;DHT22;5184;51.376;7.148;2023-06-10T15:44:23;33.50;1.00
10278;DHT22;5184;51.376;7.148;2023-06-10T15:46:49;33.50;1.00
10278;DHT22;5184;51.376;7.148;2023-06-10T15:49:16;33.70;1.00
10278;DHT22;5184;51.376;7.148;2023-06-10T15:51:42;33.80;1.00